Columbia/Owens Field, South Carolina
Current Conditions -  °F | °C
As of 2:53 AM on Sunday 26 Oct 2014 (Local Time) from KCUB Reporting Station
Clear Clear  
Wind Chill: 51°   Ceiling: Unl
Heat Index: 51°   Visibility: 10mi
Dew Point: 47°   Wind: 0mph
Humidity: 86%   Direction: NA
Pressure: 29.93"   Gusts: NA
Location:  33.97°N, 81°W
Report Text: KCUB 260653Z AUTO 00000KT 10SM CLR 11/08 A2993 RMK AO2 SLP133 T01060083
Loading
Personal Weather Stations






























Interactive Weather Map
Tropical Storm Tracking
New forecast layout! Learn more

10-Day Weather Forecast

Advertisements
Track Severe Weather on mobile